createdAt,value
2019-02-27T00:02:00.874Z,32.70
2019-02-27T00:04:30.102Z,33.57
2019-02-27T00:06:59.365Z,31.83
2019-02-27T00:09:32.663Z,30.30
2019-02-27T00:11:59.544Z,31.53
2019-02-27T00:14:28.855Z,32.47
2019-02-27T00:16:59.701Z,33.60
2019-02-27T00:19:30.914Z,30.27
2019-02-27T00:22:00.050Z,33.43
2019-02-27T00:24:29.949Z,35.80
2019-02-27T00:26:59.830Z,29.03
2019-02-27T00:29:29.586Z,27.03
2019-02-27T00:31:58.959Z,30.37
2019-02-27T00:34:28.260Z,29.07
2019-02-27T00:37:18.745Z,25.17
2019-02-27T00:39:47.762Z,29.10
2019-02-27T00:42:20.634Z,28.73
2019-02-27T00:44:48.162Z,27.93
2019-02-27T00:47:20.138Z,29.03
2019-02-27T00:49:48.391Z,32.83
2019-02-27T00:52:18.246Z,31.00
2019-02-27T00:54:48.263Z,26.20
2019-02-27T00:57:20.536Z,30.20
2019-02-27T00:59:48.443Z,30.03
2019-02-27T01:02:19.954Z,30.07
2019-02-27T01:04:48.783Z,28.67
2019-02-27T01:07:20.655Z,32.07
2019-02-27T01:09:50.413Z,30.93
2019-02-27T01:12:20.338Z,27.13
2019-02-27T01:14:49.978Z,28.50
2019-02-27T01:17:20.917Z,28.13
2019-02-27T01:19:50.105Z,31.23
2019-02-27T01:22:19.331Z,26.37
2019-02-27T01:24:50.123Z,29.87
2019-02-27T01:27:19.780Z,29.33
2019-02-27T01:29:51.625Z,30.00
2019-02-27T01:32:20.030Z,26.33
2019-02-27T01:34:49.256Z,29.70
2019-02-27T01:37:18.562Z,30.20
2019-02-27T01:39:47.793Z,29.90
2019-02-27T01:42:17.042Z,31.00
2019-02-27T01:44:46.576Z,27.73
2019-02-27T01:47:16.438Z,29.50
2019-02-27T01:49:48.916Z,29.17
2019-02-27T01:52:16.860Z,29.27
2019-02-27T01:54:48.732Z,31.07
2019-02-27T01:57:17.116Z,29.60
2019-02-27T01:59:50.055Z,32.33
2019-02-27T02:02:17.383Z,29.73
2019-02-27T02:04:46.758Z,32.47
2019-02-27T02:07:15.954Z,26.20
2019-02-27T02:09:47.978Z,26.67
2019-02-27T02:12:26.204Z,27.23
2019-02-27T02:15:19.190Z,27.40
2019-02-27T02:18:31.501Z,29.47
2019-02-27T02:21:48.135Z,28.43
2019-02-27T02:24:58.151Z,32.77
2019-02-27T02:28:20.428Z,27.50
2019-02-27T02:31:21.666Z,28.63
2019-02-27T02:34:28.169Z,26.50
2019-02-27T02:37:37.002Z,29.57
2019-02-27T02:40:37.692Z,31.97
2019-02-27T02:43:26.791Z,28.20
2019-02-27T02:46:08.846Z,25.83
2019-02-27T02:49:10.482Z,26.40
2019-02-27T02:52:08.997Z,28.10
2019-02-27T02:55:11.972Z,28.47
2019-02-27T02:58:20.498Z,27.37
2019-02-27T03:01:16.005Z,25.23
2019-02-27T03:04:04.627Z,27.63
2019-02-27T03:07:03.121Z,30.83
2019-02-27T03:10:10.615Z,31.60
2019-02-27T03:13:20.222Z,28.50
2019-02-27T03:16:17.407Z,27.97
2019-02-27T03:18:57.868Z,28.77
2019-02-27T03:22:16.034Z,27.70
2019-02-27T03:25:25.471Z,27.40
2019-02-27T03:28:40.964Z,26.87
2019-02-27T03:31:40.040Z,27.17
2019-02-27T03:34:50.192Z,29.17
2019-02-27T03:37:35.274Z,31.60
2019-02-27T03:40:45.086Z,29.90
2019-02-27T03:43:25.483Z,26.47
2019-02-27T03:46:22.119Z,30.23
2019-02-27T03:49:15.886Z,31.43
2019-02-27T03:52:36.111Z,28.37
2019-02-27T03:55:45.212Z,25.97
2019-02-27T03:58:31.530Z,27.83
2019-02-27T04:01:50.865Z,26.87
2019-02-27T04:05:05.142Z,26.33
2019-02-27T04:08:23.391Z,28.60
2019-02-27T04:10:54.553Z,28.63
2019-02-27T04:13:26.771Z,25.67
2019-02-27T04:15:54.805Z,26.47
2019-02-27T04:18:27.342Z,29.37
2019-02-27T04:20:53.525Z,29.03
2019-02-27T04:23:22.724Z,31.53
2019-02-27T04:25:51.930Z,30.03
2019-02-27T04:28:21.180Z,25.57
2019-02-27T04:30:51.368Z,31.03
2019-02-27T04:33:23.314Z,30.03
2019-02-27T04:35:52.188Z,27.97
2019-02-27T04:38:21.414Z,25.87
2019-02-27T04:40:50.804Z,29.27
2019-02-27T04:43:19.986Z,24.63
2019-02-27T04:45:50.902Z,28.40
2019-02-27T04:48:20.322Z,28.80
2019-02-27T04:50:49.497Z,26.80
2019-02-27T04:53:18.802Z,28.83
2019-02-27T04:55:50.228Z,28.00
2019-02-27T04:58:19.102Z,27.97
2019-02-27T05:00:48.504Z,29.63
2019-02-27T05:03:17.690Z,29.27
2019-02-27T05:05:46.874Z,26.63
2019-02-27T05:08:16.173Z,29.80
2019-02-27T05:10:45.354Z,30.47
2019-02-27T05:13:14.612Z,25.43
2019-02-27T05:15:44.050Z,31.60
2019-02-27T05:18:13.334Z,28.87
2019-02-27T05:20:44.912Z,29.83
2019-02-27T05:23:13.825Z,29.57
2019-02-27T05:25:43.111Z,33.13
2019-02-27T05:28:12.937Z,30.43
2019-02-27T05:30:44.813Z,27.37
2019-02-27T05:33:13.107Z,29.10
2019-02-27T05:35:42.329Z,27.37
2019-02-27T05:38:11.561Z,24.77
2019-02-27T05:40:40.773Z,28.87
2019-02-27T05:43:13.225Z,28.80
2019-02-27T05:45:40.997Z,28.00
2019-02-27T05:48:10.479Z,31.60
2019-02-27T05:50:39.766Z,30.97
2019-02-27T05:53:10.527Z,29.47
2019-02-27T05:55:40.044Z,30.63
2019-02-27T05:58:09.299Z,28.57
2019-02-27T06:00:38.761Z,32.70
2019-02-27T06:03:08.058Z,28.10
2019-02-27T06:05:37.321Z,28.03
2019-02-27T06:08:06.662Z,25.30
2019-02-27T06:10:35.925Z,25.47
2019-02-27T06:13:05.238Z,26.33
2019-02-27T06:15:34.489Z,31.13
2019-02-27T06:18:03.810Z,26.97
2019-02-27T06:20:33.200Z,27.17
2019-02-27T06:23:04.411Z,34.03
2019-02-27T06:25:33.383Z,31.33
2019-02-27T06:28:02.593Z,28.60
2019-02-27T06:30:31.912Z,30.43
2019-02-27T06:33:01.214Z,28.20
2019-02-27T06:35:33.458Z,32.23
2019-02-27T06:38:01.663Z,29.97
2019-02-27T06:40:30.937Z,30.07
2019-02-27T06:43:00.239Z,32.03
2019-02-27T06:45:29.427Z,35.80
2019-02-27T06:47:58.633Z,30.23
2019-02-27T06:50:27.868Z,30.93
2019-02-27T06:52:57.136Z,28.63
2019-02-27T06:55:28.235Z,35.73
2019-02-27T06:57:58.053Z,35.23
2019-02-27T07:00:27.330Z,30.97
2019-02-27T07:02:56.647Z,34.10
2019-02-27T07:05:25.897Z,34.17
2019-02-27T07:07:55.177Z,32.00
2019-02-27T07:10:24.477Z,31.53
2019-02-27T07:12:54.827Z,35.33
2019-02-27T07:15:24.653Z,40.17
2019-02-27T07:17:54.033Z,34.93
2019-02-27T07:20:24.403Z,30.00
2019-02-27T07:22:54.365Z,28.30
2019-02-27T07:25:23.625Z,31.77
2019-02-27T07:27:52.943Z,29.30
2019-02-27T07:30:23.717Z,22.43
2019-02-27T07:32:53.326Z,23.63
2019-02-27T07:35:25.552Z,22.20
2019-02-27T07:37:53.618Z,19.43
2019-02-27T07:40:22.884Z,25.93
2019-02-27T07:42:52.134Z,26.47
2019-02-27T07:45:22.641Z,22.90
2019-02-27T07:47:52.429Z,23.33
2019-02-27T07:50:21.787Z,22.60
2019-02-27T07:52:52.141Z,21.70
2019-02-27T07:55:23.292Z,20.30
2019-02-27T07:57:52.670Z,20.47
2019-02-27T08:00:21.880Z,23.93
2019-02-27T08:02:51.098Z,21.37
2019-02-27T08:05:20.312Z,22.20
2019-02-27T08:07:49.942Z,17.07
2019-02-27T08:10:19.843Z,17.50
2019-02-27T08:12:49.054Z,19.83
2019-02-27T08:15:18.810Z,17.67
2019-02-27T08:17:48.089Z,16.67
2019-02-27T08:20:20.117Z,17.73
2019-02-27T08:22:49.695Z,18.10
2019-02-27T08:25:19.177Z,16.50
2019-02-27T08:27:48.493Z,19.03
2019-02-27T08:30:20.182Z,17.07
2019-02-27T08:32:49.446Z,15.97
2019-02-27T08:35:18.729Z,16.77
2019-02-27T08:37:47.927Z,15.83
2019-02-27T08:40:17.349Z,18.97
2019-02-27T08:42:46.623Z,18.20
2019-02-27T08:45:19.692Z,16.33
2019-02-27T08:47:46.956Z,15.43
2019-02-27T08:50:16.572Z,15.97
2019-02-27T08:52:50.477Z,20.10
2019-02-27T08:55:21.136Z,18.70
2019-02-27T08:57:49.729Z,14.13
2019-02-27T09:00:20.929Z,19.20
2019-02-27T09:02:51.734Z,18.03
2019-02-27T09:05:21.129Z,17.10
2019-02-27T09:07:50.590Z,18.37
2019-02-27T09:10:19.920Z,20.43
2019-02-27T09:12:51.682Z,16.57
2019-02-27T09:15:20.594Z,13.97
2019-02-27T09:17:49.829Z,19.90
2019-02-27T09:20:19.757Z,15.97
2019-02-27T09:22:49.964Z,13.80
2019-02-27T09:25:23.878Z,18.43
2019-02-27T09:27:50.611Z,16.07
2019-02-27T09:30:19.970Z,16.20
2019-02-27T09:32:49.360Z,18.07
2019-02-27T09:35:18.749Z,16.47
2019-02-27T09:37:50.678Z,17.63
2019-02-27T09:40:19.655Z,19.60
2019-02-27T09:42:50.237Z,16.57
2019-02-27T09:45:28.114Z,17.70
2019-02-27T09:48:00.004Z,19.60
2019-02-27T09:50:36.621Z,15.00
2019-02-27T09:53:05.932Z,13.87
2019-02-27T09:55:35.238Z,15.33
2019-02-27T09:58:09.957Z,15.67
2019-02-27T10:00:43.743Z,14.97
2019-02-27T10:03:12.993Z,17.77
2019-02-27T10:05:42.181Z,17.47
2019-02-27T10:08:12.437Z,15.30
2019-02-27T10:10:44.943Z,17.13
2019-02-27T10:13:12.685Z,16.83
2019-02-27T10:15:41.905Z,15.53
2019-02-27T10:18:11.133Z,17.53
2019-02-27T10:20:40.491Z,19.97
2019-02-27T10:23:09.717Z,17.63
2019-02-27T10:25:43.181Z,18.17
2019-02-27T10:28:10.730Z,16.43
2019-02-27T10:30:40.174Z,17.73
2019-02-27T10:33:11.100Z,19.10
2019-02-27T10:35:40.513Z,16.37
2019-02-27T10:38:09.892Z,15.40
2019-02-27T10:40:41.162Z,17.77
2019-02-27T10:43:10.448Z,18.07
2019-02-27T10:45:39.644Z,14.77
2019-02-27T10:48:08.864Z,15.63
2019-02-27T10:50:38.122Z,13.87
2019-02-27T10:53:07.370Z,16.50
2019-02-27T10:55:36.746Z,14.30
2019-02-27T10:58:07.699Z,15.23
2019-02-27T11:00:37.052Z,24.77
2019-02-27T11:03:06.260Z,11.60
2019-02-27T11:05:35.588Z,17.43
2019-02-27T11:08:04.884Z,10.10
2019-02-27T11:10:34.617Z,10.90
2019-02-27T11:13:06.709Z,13.07
2019-02-27T11:15:34.924Z,12.60
2019-02-27T11:18:05.721Z,14.67
2019-02-27T11:20:35.401Z,13.10
2019-02-27T11:23:07.020Z,13.57
2019-02-27T11:25:35.773Z,15.80
2019-02-27T11:28:05.039Z,12.47
2019-02-27T11:30:36.807Z,13.80
2019-02-27T11:33:06.511Z,14.43
2019-02-27T11:35:35.869Z,15.73
2019-02-27T11:38:05.358Z,17.13
2019-02-27T11:40:34.665Z,15.80
2019-02-27T11:43:06.561Z,18.13
2019-02-27T11:45:34.860Z,15.93
2019-02-27T11:48:05.998Z,19.47
2019-02-27T11:50:35.259Z,13.77
2019-02-27T11:53:05.864Z,18.00
2019-02-27T11:55:35.331Z,15.60
2019-02-27T11:58:05.476Z,16.60
2019-02-27T12:00:35.143Z,16.60
2019-02-27T12:03:04.392Z,14.97
2019-02-27T12:05:34.459Z,16.80
2019-02-27T12:08:04.058Z,19.87
2019-02-27T12:10:33.516Z,15.90
2019-02-27T12:13:02.798Z,17.07
2019-02-27T12:15:32.210Z,16.70
2019-02-27T12:18:01.910Z,17.40
2019-02-27T12:20:31.614Z,14.27
2019-02-27T12:23:00.980Z,15.87
2019-02-27T12:25:32.229Z,17.10
2019-02-27T12:28:02.028Z,14.57
2019-02-27T12:30:31.282Z,15.70
2019-02-27T12:33:00.529Z,15.00
2019-02-27T12:35:30.721Z,17.90
2019-02-27T12:38:00.071Z,15.17
2019-02-27T12:40:29.405Z,15.67
2019-02-27T12:42:58.684Z,17.10
2019-02-27T12:45:29.733Z,13.17
2019-02-27T12:48:18.080Z,14.13
2019-02-27T12:50:47.313Z,14.43
2019-02-27T12:53:20.656Z,12.90
2019-02-27T12:55:47.951Z,15.73
2019-02-27T12:58:17.262Z,13.40
2019-02-27T13:00:46.635Z,16.43
2019-02-27T13:03:16.091Z,15.60
2019-02-27T13:05:45.539Z,15.73
2019-02-27T13:08:16.418Z,14.33
2019-02-27T13:10:45.898Z,15.83
2019-02-27T13:13:15.342Z,17.23
2019-02-27T13:16:03.821Z,18.33
2019-02-27T13:18:33.167Z,14.23
2019-02-27T13:21:02.552Z,15.97
2019-02-27T13:23:31.874Z,17.20
2019-02-27T13:26:01.147Z,15.57
2019-02-27T13:28:30.525Z,12.77
2019-02-27T13:31:00.046Z,14.83
2019-02-27T13:33:29.302Z,15.57
2019-02-27T13:35:59.785Z,16.57
2019-02-27T13:38:29.596Z,17.97
2019-02-27T13:40:58.846Z,15.10
2019-02-27T13:43:31.112Z,14.80
2019-02-27T13:46:00.442Z,16.60
2019-02-27T13:48:29.636Z,13.53
2019-02-27T13:50:59.605Z,15.20
2019-02-27T13:53:30.079Z,14.10
2019-02-27T13:56:01.261Z,14.30
2019-02-27T13:58:33.409Z,15.73
2019-02-27T14:01:01.332Z,14.87
2019-02-27T14:03:30.956Z,15.43
2019-02-27T14:06:00.244Z,15.83
2019-02-27T14:08:32.095Z,13.87
2019-02-27T14:11:00.441Z,13.70
2019-02-27T14:13:30.827Z,15.30
2019-02-27T14:16:00.805Z,13.83
2019-02-27T14:18:31.085Z,11.77
2019-02-27T14:21:01.707Z,12.70
2019-02-27T14:23:31.336Z,14.53
2019-02-27T14:26:05.623Z,18.07
2019-02-27T14:28:31.563Z,14.17
2019-02-27T14:31:00.781Z,13.30
2019-02-27T14:33:29.962Z,16.07
2019-02-27T14:35:59.189Z,13.43
2019-02-27T14:38:29.383Z,12.40
2019-02-27T14:40:58.669Z,15.73
2019-02-27T14:43:28.263Z,14.90
2019-02-27T14:45:57.489Z,13.83
2019-02-27T14:48:26.689Z,19.50
2019-02-27T14:50:55.978Z,14.80
2019-02-27T14:53:25.191Z,15.57
2019-02-27T14:55:54.440Z,13.47
2019-02-27T14:58:24.277Z,13.97
2019-02-27T15:00:54.562Z,15.47
2019-02-27T15:03:23.841Z,15.10
2019-02-27T15:05:53.196Z,15.67
2019-02-27T15:08:25.160Z,15.10
2019-02-27T15:10:53.440Z,18.00
2019-02-27T15:13:22.660Z,17.27
2019-02-27T15:15:51.933Z,15.13
2019-02-27T15:18:22.441Z,14.03
2019-02-27T15:20:52.120Z,15.63
2019-02-27T15:23:25.095Z,14.93
2019-02-27T15:25:55.366Z,14.77
2019-02-27T15:28:24.780Z,15.67
2019-02-27T15:30:54.110Z,13.03
2019-02-27T15:33:23.617Z,18.33
2019-02-27T15:35:55.636Z,16.83
2019-02-27T15:38:24.802Z,16.97
2019-02-27T15:40:54.063Z,17.57
2019-02-27T15:43:23.250Z,15.63
2019-02-27T15:45:52.473Z,16.33
2019-02-27T15:48:21.728Z,17.97
2019-02-27T15:50:50.943Z,17.37
2019-02-27T15:53:20.181Z,20.80
2019-02-27T15:55:49.527Z,17.23
2019-02-27T15:58:18.790Z,18.23
2019-02-27T16:00:52.286Z,17.23
2019-02-27T16:03:19.571Z,17.50
2019-02-27T16:05:49.884Z,18.80
2019-02-27T16:08:20.191Z,17.70
2019-02-27T16:10:54.857Z,17.87
2019-02-27T16:13:21.253Z,15.63
2019-02-27T16:15:50.501Z,16.50
2019-02-27T16:18:19.737Z,15.70
2019-02-27T16:20:49.878Z,18.77
2019-02-27T16:23:19.837Z,19.40
2019-02-27T16:25:52.841Z,20.23
2019-02-27T16:28:19.951Z,21.23
2019-02-27T16:30:49.180Z,15.83
2019-02-27T16:33:23.549Z,21.83
2019-02-27T16:35:49.382Z,17.73
2019-02-27T16:38:18.746Z,20.13
2019-02-27T16:40:52.012Z,19.53
2019-02-27T16:43:19.084Z,20.17
2019-02-27T16:45:48.388Z,19.87
2019-02-27T16:48:17.632Z,18.00
2019-02-27T16:50:48.197Z,20.30
2019-02-27T16:53:19.508Z,20.77
2019-02-27T16:55:48.571Z,20.73
2019-02-27T16:58:17.942Z,22.07
2019-02-27T17:00:47.268Z,21.60
2019-02-27T17:03:16.600Z,20.40
2019-02-27T17:05:45.911Z,21.97
2019-02-27T17:08:15.248Z,19.93
2019-02-27T17:10:44.555Z,24.07
2019-02-27T17:13:15.426Z,20.43
2019-02-27T17:15:44.955Z,19.23
2019-02-27T17:18:14.221Z,24.43
2019-02-27T17:20:46.344Z,22.30
2019-02-27T17:23:14.487Z,24.47
2019-02-27T17:25:43.683Z,21.20
2019-02-27T17:28:12.957Z,22.53
2019-02-27T17:30:42.284Z,22.47
2019-02-27T17:33:11.663Z,23.57
2019-02-27T17:35:40.996Z,25.83
2019-02-27T17:38:13.726Z,23.93
2019-02-27T17:40:42.810Z,25.30
2019-02-27T17:43:12.156Z,27.57
2019-02-27T17:45:44.349Z,23.87
2019-02-27T17:48:13.121Z,22.13
2019-02-27T17:50:42.610Z,26.47
2019-02-27T17:53:11.890Z,30.90
2019-02-27T17:55:41.751Z,22.37
2019-02-27T17:58:11.854Z,31.40
2019-02-27T18:00:42.323Z,26.50
2019-02-27T18:03:11.618Z,25.77
2019-02-27T18:05:40.987Z,24.23
2019-02-27T18:08:10.310Z,26.27
2019-02-27T18:10:39.648Z,23.73
2019-02-27T18:13:08.939Z,27.67
2019-02-27T18:15:38.264Z,29.63
2019-02-27T18:18:10.429Z,23.10
2019-02-27T18:20:38.410Z,25.97
2019-02-27T18:23:07.731Z,29.97
2019-02-27T18:25:41.146Z,26.10
2019-02-27T18:28:07.969Z,27.97
2019-02-27T18:30:37.516Z,24.57
2019-02-27T18:33:06.823Z,27.80
2019-02-27T18:35:36.054Z,33.47
2019-02-27T18:38:05.390Z,29.47
2019-02-27T18:40:34.699Z,30.70
2019-02-27T18:43:06.679Z,30.87
2019-02-27T18:45:36.022Z,33.50
2019-02-27T18:48:07.278Z,30.80
2019-02-27T18:50:36.251Z,28.57
2019-02-27T18:53:24.623Z,32.53
2019-02-27T18:55:53.837Z,32.63
2019-02-27T18:58:23.134Z,32.60
2019-02-27T19:00:52.493Z,32.23
2019-02-27T19:03:25.452Z,28.87
2019-02-27T19:05:52.634Z,33.67
2019-02-27T19:08:21.863Z,35.97
2019-02-27T19:10:51.054Z,36.30
2019-02-27T19:13:20.258Z,35.87
2019-02-27T19:15:49.866Z,39.83
2019-02-27T19:18:19.199Z,36.10
2019-02-27T19:20:48.396Z,35.37
2019-02-27T19:23:18.511Z,41.03
2019-02-27T19:25:47.966Z,40.30
2019-02-27T19:28:17.172Z,36.70
2019-02-27T19:30:46.670Z,38.70
2019-02-27T19:33:16.004Z,37.33
2019-02-27T19:35:45.186Z,39.27
2019-02-27T19:38:14.456Z,38.07
2019-02-27T19:40:43.703Z,39.70
2019-02-27T19:43:15.213Z,38.53
2019-02-27T19:45:44.606Z,40.30
2019-02-27T19:48:14.162Z,38.37
2019-02-27T19:50:46.370Z,38.53
2019-02-27T19:53:16.841Z,39.40
2019-02-27T19:55:46.116Z,41.27
2019-02-27T19:58:18.078Z,40.70
2019-02-27T20:00:48.507Z,44.30
2019-02-27T20:03:17.329Z,39.20
2019-02-27T20:05:46.521Z,45.70
2019-02-27T20:08:15.933Z,46.80
2019-02-27T20:10:45.287Z,42.77
2019-02-27T20:13:14.671Z,47.23
2019-02-27T20:15:45.791Z,38.77
2019-02-27T20:18:15.402Z,46.10
2019-02-27T20:20:44.871Z,42.73
2019-02-27T20:23:14.261Z,37.50
2019-02-27T20:25:44.495Z,43.37
2019-02-27T20:28:13.975Z,41.80
2019-02-27T20:30:43.222Z,41.63
2019-02-27T20:33:12.508Z,42.10
2019-02-27T20:35:41.969Z,44.20
2019-02-27T20:38:15.365Z,43.63
2019-02-27T20:40:42.332Z,42.67
2019-02-27T20:43:11.636Z,44.07
2019-02-27T20:45:42.811Z,43.20
2019-02-27T20:48:12.210Z,41.67
2019-02-27T20:50:42.666Z,44.13
2019-02-27T20:53:12.334Z,48.47
2019-02-27T20:55:41.786Z,47.53
2019-02-27T20:58:16.169Z,43.73
2019-02-27T21:00:42.295Z,47.47
2019-02-27T21:03:11.627Z,46.00
2019-02-27T21:05:41.983Z,45.47
2019-02-27T21:08:11.565Z,42.10
2019-02-27T21:10:41.002Z,44.40
2019-02-27T21:13:15.591Z,40.97
2019-02-27T21:15:42.642Z,47.03
2019-02-27T21:18:11.897Z,41.30
2019-02-27T21:20:42.119Z,44.07
2019-02-27T21:23:12.178Z,48.63
2019-02-27T21:25:41.466Z,41.50
2019-02-27T21:28:10.701Z,44.37
2019-02-27T21:30:39.931Z,48.97
2019-02-27T21:33:11.221Z,45.63
2019-02-27T21:35:40.138Z,47.73
2019-02-27T21:38:09.388Z,42.73
2019-02-27T21:40:38.669Z,46.40
2019-02-27T21:43:07.951Z,49.73
2019-02-27T21:45:38.275Z,49.63
2019-02-27T21:48:07.655Z,45.40
2019-02-27T21:50:39.607Z,45.33
2019-02-27T21:53:07.895Z,47.03
2019-02-27T21:55:37.182Z,44.17
2019-02-27T21:58:06.525Z,43.43
2019-02-27T22:00:35.816Z,48.90
2019-02-27T22:03:07.258Z,47.23
2019-02-27T22:05:42.685Z,48.30
2019-02-27T22:08:07.556Z,40.13
2019-02-27T22:10:36.827Z,44.40
2019-02-27T22:13:09.524Z,45.13
2019-02-27T22:15:37.165Z,48.47
2019-02-27T22:18:08.301Z,43.97
2019-02-27T22:20:37.513Z,48.60
2019-02-27T22:23:06.767Z,46.83
2019-02-27T22:25:36.070Z,45.83
2019-02-27T22:28:05.302Z,47.50
2019-02-27T22:30:34.636Z,51.47
2019-02-27T22:33:03.837Z,50.07
2019-02-27T22:35:37.379Z,51.20
2019-02-27T22:38:05.738Z,49.93
2019-02-27T22:40:37.968Z,51.20
2019-02-27T22:43:06.018Z,48.20
2019-02-27T22:45:36.104Z,51.50
2019-02-27T22:48:06.238Z,46.47
2019-02-27T22:50:38.302Z,51.20
2019-02-27T22:53:06.477Z,50.00
2019-02-27T22:55:36.280Z,52.33
2019-02-27T22:58:05.972Z,49.23
2019-02-27T23:01:07.923Z,55.00
2019-02-27T23:06:25.687Z,50.63
2019-02-27T23:08:55.131Z,53.97
2019-02-27T23:11:24.541Z,50.70
2019-02-27T23:13:53.859Z,50.77
2019-02-27T23:16:23.135Z,53.63
2019-02-27T23:18:52.337Z,53.83
2019-02-27T23:21:21.721Z,57.00
2019-02-27T23:23:50.977Z,56.07
2019-02-27T23:26:21.015Z,59.80
2019-02-27T23:28:50.443Z,57.67
2019-02-27T23:31:23.290Z,65.07
2019-02-27T23:33:50.547Z,58.17
2019-02-27T23:36:22.033Z,65.53
2019-02-27T23:38:52.471Z,58.80
2019-02-27T23:41:23.192Z,63.93
2019-02-27T23:43:52.725Z,63.00
2019-02-27T23:46:22.033Z,62.40
2019-02-27T23:48:51.677Z,57.17
2019-02-27T23:51:20.971Z,60.27
2019-02-27T23:53:50.272Z,57.97
2019-02-27T23:56:20.612Z,63.57
2019-02-27T23:58:50.091Z,57.00
